sensor_id;sensor_type;location;lat;lon;timestamp;pressure;altitude;pressure_sealevel;temperature;humidity
64551;BME280;50945;44.472;-123.352;2023-06-14T00:00:20;100545.88;;;22.39;47.44
64551;BME280;50945;44.472;-123.352;2023-06-14T00:02:46;100544.97;;;22.33;47.01
64551;BME280;50945;44.472;-123.352;2023-06-14T00:05:12;100532.75;;;22.17;47.08
64551;BME280;50945;44.472;-123.352;2023-06-14T00:07:40;100529.19;;;21.83;44.98
64551;BME280;50945;44.472;-123.352;2023-06-14T00:10:10;100539.06;;;21.74;47.58
64551;BME280;50945;44.472;-123.352;2023-06-14T00:12:39;100540.53;;;21.59;47.36
64551;BME280;50945;44.472;-123.352;2023-06-14T00:15:06;100540.13;;;21.39;47.45
64551;BME280;50945;44.472;-123.352;2023-06-14T00:17:32;100556.88;;;21.10;47.26
64551;BME280;50945;44.472;-123.352;2023-06-14T00:19:59;100556.84;;;20.93;47.30
64551;BME280;50945;44.472;-123.352;2023-06-14T00:22:26;100557.63;;;20.77;47.60
64551;BME280;50945;44.472;-123.352;2023-06-14T00:24:54;100562.84;;;20.73;47.28
64551;BME280;50945;44.472;-123.352;2023-06-14T00:27:20;100559.47;;;20.71;47.11
64551;BME280;50945;44.472;-123.352;2023-06-14T00:29:46;100565.19;;;20.64;46.95
64551;BME280;50945;44.472;-123.352;2023-06-14T00:32:12;100562.75;;;20.56;47.20
64551;BME280;50945;44.472;-123.352;2023-06-14T00:34:39;100562.75;;;20.56;47.68
64551;BME280;50945;44.472;-123.352;2023-06-14T00:37:05;100562.03;;;20.61;47.60
64551;BME280;50945;44.472;-123.352;2023-06-14T00:39:31;100558.88;;;20.57;47.74
64551;BME280;50945;44.472;-123.352;2023-06-14T00:41:57;100561.22;;;20.48;48.11
64551;BME280;50945;44.472;-123.352;2023-06-14T00:44:24;100563.88;;;20.43;48.59
64551;BME280;50945;44.472;-123.352;2023-06-14T00:46:51;100550.50;;;20.40;48.47
64551;BME280;50945;44.472;-123.352;2023-06-14T00:49:18;100558.00;;;20.28;48.27
64551;BME280;50945;44.472;-123.352;2023-06-14T00:51:45;100563.44;;;20.11;48.76
64551;BME280;50945;44.472;-123.352;2023-06-14T00:54:11;100556.34;;;19.91;48.94
64551;BME280;50945;44.472;-123.352;2023-06-14T00:56:37;100555.63;;;19.84;48.93
64551;BME280;50945;44.472;-123.352;2023-06-14T00:59:04;100551.13;;;19.71;49.58
64551;BME280;50945;44.472;-123.352;2023-06-14T01:01:31;100560.16;;;19.55;50.06
64551;BME280;50945;44.472;-123.352;2023-06-14T01:04:00;100554.59;;;19.43;50.43
64551;BME280;50945;44.472;-123.352;2023-06-14T01:09:25;100553.69;;;19.07;50.49
64551;BME280;50945;44.472;-123.352;2023-06-14T01:12:17;100548.09;;;18.95;51.20
64551;BME280;50945;44.472;-123.352;2023-06-14T01:14:48;100550.25;;;18.93;50.49
64551;BME280;50945;44.472;-123.352;2023-06-14T01:17:15;100553.25;;;18.92;50.00
64551;BME280;50945;44.472;-123.352;2023-06-14T01:19:43;100540.72;;;18.89;49.97
64551;BME280;50945;44.472;-123.352;2023-06-14T01:22:10;100545.91;;;18.86;49.77
64551;BME280;50945;44.472;-123.352;2023-06-14T01:24:36;100551.44;;;18.86;49.45
64551;BME280;50945;44.472;-123.352;2023-06-14T01:27:05;100550.97;;;18.89;49.11
64551;BME280;50945;44.472;-123.352;2023-06-14T01:29:33;100546.03;;;18.91;49.34
64551;BME280;50945;44.472;-123.352;2023-06-14T01:32:02;100557.97;;;18.91;48.82
64551;BME280;50945;44.472;-123.352;2023-06-14T01:34:28;100546.03;;;18.91;48.61
64551;BME280;50945;44.472;-123.352;2023-06-14T01:36:55;100553.88;;;18.94;48.32
64551;BME280;50945;44.472;-123.352;2023-06-14T01:39:22;100553.88;;;18.94;48.40
64551;BME280;50945;44.472;-123.352;2023-06-14T01:41:50;100551.72;;;18.96;48.21
64551;BME280;50945;44.472;-123.352;2023-06-14T01:44:18;100547.03;;;18.96;48.30
64551;BME280;50945;44.472;-123.352;2023-06-14T01:46:45;100535.19;;;18.89;48.45
64551;BME280;50945;44.472;-123.352;2023-06-14T01:49:11;100540.00;;;18.82;48.76
64551;BME280;50945;44.472;-123.352;2023-06-14T01:51:38;100542.97;;;18.80;48.90
64551;BME280;50945;44.472;-123.352;2023-06-14T01:54:04;100536.81;;;18.78;49.16
64551;BME280;50945;44.472;-123.352;2023-06-14T01:56:31;100534.72;;;18.74;49.00
64551;BME280;50945;44.472;-123.352;2023-06-14T01:58:58;100529.53;;;18.66;48.86
64551;BME280;50945;44.472;-123.352;2023-06-14T02:01:24;100536.38;;;18.63;49.12
64551;BME280;50945;44.472;-123.352;2023-06-14T02:03:50;100536.72;;;18.55;48.67
64551;BME280;50945;44.472;-123.352;2023-06-14T02:06:17;100528.41;;;18.55;48.98
64551;BME280;50945;44.472;-123.352;2023-06-14T02:08:43;100521.41;;;18.52;48.77
64551;BME280;50945;44.472;-123.352;2023-06-14T02:11:09;100526.34;;;18.50;48.91
64551;BME280;50945;44.472;-123.352;2023-06-14T02:13:35;100527.88;;;18.46;48.48
64551;BME280;50945;44.472;-123.352;2023-06-14T02:16:01;100531.63;;;18.52;48.58
64551;BME280;50945;44.472;-123.352;2023-06-14T02:18:28;100532.47;;;18.52;48.55
64551;BME280;50945;44.472;-123.352;2023-06-14T02:20:54;100530.44;;;18.48;48.25
64551;BME280;50945;44.472;-123.352;2023-06-14T02:23:20;100529.78;;;18.46;48.38
64551;BME280;50945;44.472;-123.352;2023-06-14T02:25:47;100539.19;;;18.45;48.35
64551;BME280;50945;44.472;-123.352;2023-06-14T02:28:13;100543.00;;;18.43;48.33
64551;BME280;50945;44.472;-123.352;2023-06-14T02:30:39;100540.09;;;18.38;48.43
64551;BME280;50945;44.472;-123.352;2023-06-14T02:33:06;100540.59;;;18.35;48.42
64551;BME280;50945;44.472;-123.352;2023-06-14T02:35:32;100535.28;;;18.34;48.56
64551;BME280;50945;44.472;-123.352;2023-06-14T02:37:58;100534.66;;;18.32;48.61
64551;BME280;50945;44.472;-123.352;2023-06-14T02:40:25;100538.13;;;18.27;48.45
64551;BME280;50945;44.472;-123.352;2023-06-14T02:42:51;100532.66;;;18.20;48.80
64551;BME280;50945;44.472;-123.352;2023-06-14T02:45:17;100531.50;;;18.10;48.88
64551;BME280;50945;44.472;-123.352;2023-06-14T02:47:43;100539.31;;;17.94;49.35
64551;BME280;50945;44.472;-123.352;2023-06-14T02:50:09;100542.00;;;17.82;49.56
64551;BME280;50945;44.472;-123.352;2023-06-14T02:52:36;100541.88;;;17.71;49.71
64551;BME280;50945;44.472;-123.352;2023-06-14T02:55:02;100536.00;;;17.60;50.15
64551;BME280;50945;44.472;-123.352;2023-06-14T02:57:28;100543.59;;;17.46;50.06
64551;BME280;50945;44.472;-123.352;2023-06-14T02:59:54;100547.06;;;17.35;50.28
64551;BME280;50945;44.472;-123.352;2023-06-14T03:02:21;100541.47;;;17.23;50.73
64551;BME280;50945;44.472;-123.352;2023-06-14T03:04:47;100544.91;;;17.12;50.81
64551;BME280;50945;44.472;-123.352;2023-06-14T03:07:13;100550.53;;;16.99;51.17
64551;BME280;50945;44.472;-123.352;2023-06-14T03:12:54;100553.06;;;16.62;52.08
64551;BME280;50945;44.472;-123.352;2023-06-14T03:15:20;100557.97;;;16.53;52.12
64551;BME280;50945;44.472;-123.352;2023-06-14T03:17:49;100555.03;;;16.41;51.60
64551;BME280;50945;44.472;-123.352;2023-06-14T03:20:16;100553.38;;;16.33;52.00
64551;BME280;50945;44.472;-123.352;2023-06-14T03:22:42;100546.00;;;16.21;51.92
64551;BME280;50945;44.472;-123.352;2023-06-14T03:25:11;100541.34;;;16.14;51.97
64551;BME280;50945;44.472;-123.352;2023-06-14T03:27:38;100545.00;;;16.08;52.02
64551;BME280;50945;44.472;-123.352;2023-06-14T03:30:06;100560.50;;;16.03;51.88
64551;BME280;50945;44.472;-123.352;2023-06-14T03:32:33;100554.16;;;15.95;52.04
64551;BME280;50945;44.472;-123.352;2023-06-14T03:34:59;100555.00;;;15.89;52.12
64551;BME280;50945;44.472;-123.352;2023-06-14T03:37:25;100545.88;;;15.82;52.08
64551;BME280;50945;44.472;-123.352;2023-06-14T03:39:51;100555.84;;;15.70;52.79
64551;BME280;50945;44.472;-123.352;2023-06-14T03:42:18;100552.44;;;15.54;52.60
64551;BME280;50945;44.472;-123.352;2023-06-14T03:44:46;100558.19;;;15.39;53.17
64551;BME280;50945;44.472;-123.352;2023-06-14T03:47:12;100559.47;;;15.30;53.52
64551;BME280;50945;44.472;-123.352;2023-06-14T03:49:38;100564.31;;;15.21;53.24
64551;BME280;50945;44.472;-123.352;2023-06-14T03:52:04;100563.47;;;15.14;53.53
64551;BME280;50945;44.472;-123.352;2023-06-14T03:54:31;100566.22;;;15.08;54.01
64551;BME280;50945;44.472;-123.352;2023-06-14T03:56:59;100580.63;;;15.03;53.99
64551;BME280;50945;44.472;-123.352;2023-06-14T03:59:25;100577.63;;;14.98;53.80
64551;BME280;50945;44.472;-123.352;2023-06-14T04:01:54;100578.84;;;14.89;54.00
64551;BME280;50945;44.472;-123.352;2023-06-14T04:04:23;100591.56;;;14.83;54.31
64551;BME280;50945;44.472;-123.352;2023-06-14T04:06:57;100592.59;;;14.75;53.87
64551;BME280;50945;44.472;-123.352;2023-06-14T04:09:24;100605.09;;;14.71;54.38
64551;BME280;50945;44.472;-123.352;2023-06-14T04:11:52;100596.38;;;14.68;54.43
64551;BME280;50945;44.472;-123.352;2023-06-14T04:14:19;100601.84;;;14.61;54.58
64551;BME280;50945;44.472;-123.352;2023-06-14T04:16:49;100606.44;;;14.54;54.45
64551;BME280;50945;44.472;-123.352;2023-06-14T04:19:15;100607.25;;;14.48;54.78
64551;BME280;50945;44.472;-123.352;2023-06-14T04:21:42;100607.25;;;14.41;55.01
64551;BME280;50945;44.472;-123.352;2023-06-14T04:24:08;100610.16;;;14.33;55.16
64551;BME280;50945;44.472;-123.352;2023-06-14T04:26:45;100613.50;;;14.28;55.42
64551;BME280;50945;44.472;-123.352;2023-06-14T04:29:14;100620.47;;;14.24;55.32
64551;BME280;50945;44.472;-123.352;2023-06-14T04:31:42;100622.78;;;14.20;55.32
64551;BME280;50945;44.472;-123.352;2023-06-14T04:34:10;100623.38;;;14.16;55.28
64551;BME280;50945;44.472;-123.352;2023-06-14T04:36:42;100627.56;;;14.12;55.54
64551;BME280;50945;44.472;-123.352;2023-06-14T04:39:18;100627.97;;;14.08;55.57
64551;BME280;50945;44.472;-123.352;2023-06-14T04:41:44;100636.03;;;14.10;55.68
64551;BME280;50945;44.472;-123.352;2023-06-14T04:44:11;100632.03;;;14.13;55.39
64551;BME280;50945;44.472;-123.352;2023-06-14T04:46:39;100646.22;;;14.16;55.47
64551;BME280;50945;44.472;-123.352;2023-06-14T04:49:15;100647.66;;;14.12;55.11
64551;BME280;50945;44.472;-123.352;2023-06-14T04:51:42;100660.31;;;14.06;55.68
64551;BME280;50945;44.472;-123.352;2023-06-14T04:54:12;100665.09;;;13.98;55.51
64551;BME280;50945;44.472;-123.352;2023-06-14T04:56:41;100674.56;;;13.88;55.76
64551;BME280;50945;44.472;-123.352;2023-06-14T04:59:12;100679.16;;;13.81;55.92
64551;BME280;50945;44.472;-123.352;2023-06-14T05:01:38;100681.63;;;13.76;56.19
64551;BME280;50945;44.472;-123.352;2023-06-14T05:04:04;100686.22;;;13.69;56.33
64551;BME280;50945;44.472;-123.352;2023-06-14T05:06:31;100690.81;;;13.62;55.87
64551;BME280;50945;44.472;-123.352;2023-06-14T05:08:57;100690.53;;;13.57;56.58
64551;BME280;50945;44.472;-123.352;2023-06-14T05:11:23;100691.34;;;13.50;56.52
64551;BME280;50945;44.472;-123.352;2023-06-14T05:13:52;100697.41;;;13.46;56.82
64551;BME280;50945;44.472;-123.352;2023-06-14T05:16:19;100697.34;;;13.39;56.93
64551;BME280;50945;44.472;-123.352;2023-06-14T05:18:46;100704.66;;;13.32;57.13
64551;BME280;50945;44.472;-123.352;2023-06-14T05:21:13;100697.34;;;13.24;57.38
64551;BME280;50945;44.472;-123.352;2023-06-14T05:23:43;100702.75;;;13.18;57.62
64551;BME280;50945;44.472;-123.352;2023-06-14T05:26:10;100703.94;;;13.08;57.60
64551;BME280;50945;44.472;-123.352;2023-06-14T05:28:37;100704.91;;;13.01;57.86
64551;BME280;50945;44.472;-123.352;2023-06-14T05:31:03;100709.06;;;12.97;58.07
64551;BME280;50945;44.472;-123.352;2023-06-14T05:33:29;100705.84;;;12.93;58.01
64551;BME280;50945;44.472;-123.352;2023-06-14T05:35:55;100703.88;;;12.87;58.26
64551;BME280;50945;44.472;-123.352;2023-06-14T05:38:21;100700.66;;;12.83;58.11
64551;BME280;50945;44.472;-123.352;2023-06-14T05:40:47;100699.38;;;12.79;58.17
64551;BME280;50945;44.472;-123.352;2023-06-14T05:43:14;100702.66;;;12.74;58.18
64551;BME280;50945;44.472;-123.352;2023-06-14T05:45:40;100699.25;;;12.72;58.51
64551;BME280;50945;44.472;-123.352;2023-06-14T05:48:06;100705.78;;;12.71;58.86
64551;BME280;50945;44.472;-123.352;2023-06-14T05:50:32;100705.97;;;12.70;58.63
64551;BME280;50945;44.472;-123.352;2023-06-14T05:52:59;100714.78;;;12.65;60.41
64551;BME280;50945;44.472;-123.352;2023-06-14T05:55:25;100709.84;;;12.61;58.53
64551;BME280;50945;44.472;-123.352;2023-06-14T05:57:51;100712.31;;;12.55;58.77
64551;BME280;50945;44.472;-123.352;2023-06-14T06:00:17;100718.84;;;12.54;58.36
64551;BME280;50945;44.472;-123.352;2023-06-14T06:02:45;100721.13;;;12.51;58.80
64551;BME280;50945;44.472;-123.352;2023-06-14T06:05:13;100730.75;;;12.47;59.00
64551;BME280;50945;44.472;-123.352;2023-06-14T06:07:41;100734.06;;;12.42;59.05
64551;BME280;50945;44.472;-123.352;2023-06-14T06:10:10;100729.97;;;12.38;59.07
64551;BME280;50945;44.472;-123.352;2023-06-14T06:12:37;100724.88;;;12.35;59.58
64551;BME280;50945;44.472;-123.352;2023-06-14T06:15:04;100733.47;;;12.32;59.49
64551;BME280;50945;44.472;-123.352;2023-06-14T06:17:30;100748.44;;;12.29;59.86
64551;BME280;50945;44.472;-123.352;2023-06-14T06:19:56;100746.22;;;12.25;59.31
64551;BME280;50945;44.472;-123.352;2023-06-14T06:22:22;100750.56;;;12.19;59.39
64551;BME280;50945;44.472;-123.352;2023-06-14T06:24:49;100752.34;;;12.12;59.75
64551;BME280;50945;44.472;-123.352;2023-06-14T06:27:15;100751.22;;;12.06;59.33
64551;BME280;50945;44.472;-123.352;2023-06-14T06:29:42;100753.84;;;12.00;59.74
64551;BME280;50945;44.472;-123.352;2023-06-14T06:32:09;100745.50;;;11.93;60.22
64551;BME280;50945;44.472;-123.352;2023-06-14T06:34:35;100758.84;;;11.88;60.30
64551;BME280;50945;44.472;-123.352;2023-06-14T06:37:03;100752.22;;;11.82;60.66
64551;BME280;50945;44.472;-123.352;2023-06-14T06:39:29;100763.34;;;11.80;60.57
64551;BME280;50945;44.472;-123.352;2023-06-14T06:41:55;100764.38;;;11.79;60.67
64551;BME280;50945;44.472;-123.352;2023-06-14T06:44:21;100763.19;;;11.82;61.14
64551;BME280;50945;44.472;-123.352;2023-06-14T06:46:47;100761.94;;;11.85;60.90
64551;BME280;50945;44.472;-123.352;2023-06-14T06:49:13;100762.81;;;11.85;61.05
64551;BME280;50945;44.472;-123.352;2023-06-14T06:51:52;100758.91;;;11.79;61.10
64551;BME280;50945;44.472;-123.352;2023-06-14T06:54:25;100764.59;;;11.78;60.87
64551;BME280;50945;44.472;-123.352;2023-06-14T06:56:51;100765.47;;;11.70;60.96
64551;BME280;50945;44.472;-123.352;2023-06-14T06:59:17;100759.03;;;11.63;61.22
64551;BME280;50945;44.472;-123.352;2023-06-14T07:01:43;100768.84;;;11.57;60.97
64551;BME280;50945;44.472;-123.352;2023-06-14T07:04:09;100765.97;;;11.51;61.33
64551;BME280;50945;44.472;-123.352;2023-06-14T07:06:35;100769.44;;;11.45;61.39
64551;BME280;50945;44.472;-123.352;2023-06-14T07:09:03;100764.16;;;11.35;61.42
64551;BME280;50945;44.472;-123.352;2023-06-14T07:11:31;100774.13;;;11.28;61.43
64551;BME280;50945;44.472;-123.352;2023-06-14T07:13:57;100777.44;;;11.23;61.66
64551;BME280;50945;44.472;-123.352;2023-06-14T07:16:23;100767.84;;;11.19;61.59
64551;BME280;50945;44.472;-123.352;2023-06-14T07:18:49;100785.31;;;11.18;62.29
64551;BME280;50945;44.472;-123.352;2023-06-14T07:21:15;100784.81;;;11.14;61.91
64551;BME280;50945;44.472;-123.352;2023-06-14T07:23:41;100792.16;;;11.14;62.48
64551;BME280;50945;44.472;-123.352;2023-06-14T07:26:07;100791.47;;;11.12;62.06
64551;BME280;50945;44.472;-123.352;2023-06-14T07:28:33;100796.28;;;11.10;62.43
64551;BME280;50945;44.472;-123.352;2023-06-14T07:31:00;100793.72;;;11.08;62.01
64551;BME280;50945;44.472;-123.352;2023-06-14T07:33:26;100806.72;;;11.06;62.04
64551;BME280;50945;44.472;-123.352;2023-06-14T07:35:52;100800.59;;;11.04;62.21
64551;BME280;50945;44.472;-123.352;2023-06-14T07:38:18;100801.09;;;11.08;62.58
64551;BME280;50945;44.472;-123.352;2023-06-14T07:40:45;100806.06;;;11.04;62.68
64551;BME280;50945;44.472;-123.352;2023-06-14T07:43:11;100813.59;;;11.02;62.33
64551;BME280;50945;44.472;-123.352;2023-06-14T07:45:37;100808.28;;;11.00;62.30
64551;BME280;50945;44.472;-123.352;2023-06-14T07:48:04;100813.94;;;10.99;62.80
64551;BME280;50945;44.472;-123.352;2023-06-14T07:50:30;100808.81;;;10.96;62.76
64551;BME280;50945;44.472;-123.352;2023-06-14T07:52:56;100807.13;;;10.95;62.73
64551;BME280;50945;44.472;-123.352;2023-06-14T07:55:22;100810.69;;;10.95;63.23
64551;BME280;50945;44.472;-123.352;2023-06-14T07:57:50;100817.19;;;10.94;62.96
64551;BME280;50945;44.472;-123.352;2023-06-14T08:00:17;100810.69;;;10.95;63.36
64551;BME280;50945;44.472;-123.352;2023-06-14T08:02:45;100815.34;;;10.95;63.11
64551;BME280;50945;44.472;-123.352;2023-06-14T08:05:12;100828.84;;;10.96;63.58
64551;BME280;50945;44.472;-123.352;2023-06-14T08:07:38;100822.81;;;11.01;68.54
64551;BME280;50945;44.472;-123.352;2023-06-14T08:10:08;100828.78;;;11.04;63.65
64551;BME280;50945;44.472;-123.352;2023-06-14T08:12:34;100829.47;;;11.07;63.54
64551;BME280;50945;44.472;-123.352;2023-06-14T08:15:00;100832.19;;;11.07;63.36
64551;BME280;50945;44.472;-123.352;2023-06-14T08:17:27;100825.22;;;11.04;63.75
64551;BME280;50945;44.472;-123.352;2023-06-14T08:19:53;100831.34;;;11.06;63.11
64551;BME280;50945;44.472;-123.352;2023-06-14T08:22:23;100835.66;;;11.00;63.65
64551;BME280;50945;44.472;-123.352;2023-06-14T08:24:53;100829.19;;;10.93;63.44
64551;BME280;50945;44.472;-123.352;2023-06-14T08:27:20;100838.56;;;10.91;63.19
64551;BME280;50945;44.472;-123.352;2023-06-14T08:29:46;100832.81;;;10.86;63.42
64551;BME280;50945;44.472;-123.352;2023-06-14T08:32:12;100835.38;;;10.79;63.37
64551;BME280;50945;44.472;-123.352;2023-06-14T08:34:39;100836.06;;;10.73;63.48
64551;BME280;50945;44.472;-123.352;2023-06-14T08:37:05;100829.41;;;10.67;63.35
64551;BME280;50945;44.472;-123.352;2023-06-14T08:39:32;100839.66;;;10.65;63.72
64551;BME280;50945;44.472;-123.352;2023-06-14T08:41:58;100832.47;;;10.64;63.70
64551;BME280;50945;44.472;-123.352;2023-06-14T08:44:27;100830.97;;;10.61;63.46
64551;BME280;50945;44.472;-123.352;2023-06-14T08:46:55;100838.81;;;10.56;63.80
64551;BME280;50945;44.472;-123.352;2023-06-14T08:49:23;100842.78;;;10.54;63.89
64551;BME280;50945;44.472;-123.352;2023-06-14T08:51:57;100846.53;;;10.53;63.82
64551;BME280;50945;44.472;-123.352;2023-06-14T08:54:25;100845.84;;;10.51;63.99
64551;BME280;50945;44.472;-123.352;2023-06-14T08:56:56;100851.31;;;10.51;63.75
64551;BME280;50945;44.472;-123.352;2023-06-14T08:59:26;100854.38;;;10.48;63.78
64551;BME280;50945;44.472;-123.352;2023-06-14T09:01:53;100848.22;;;10.45;63.97
64551;BME280;50945;44.472;-123.352;2023-06-14T09:04:23;100853.53;;;10.47;64.16
64551;BME280;50945;44.472;-123.352;2023-06-14T09:06:56;100867.19;;;10.47;63.98
64551;BME280;50945;44.472;-123.352;2023-06-14T09:09:22;100861.72;;;10.47;68.52
64551;BME280;50945;44.472;-123.352;2023-06-14T09:11:54;100853.88;;;10.44;64.11
64551;BME280;50945;44.472;-123.352;2023-06-14T09:14:23;100864.63;;;10.45;64.24
64551;BME280;50945;44.472;-123.352;2023-06-14T09:16:54;100868.56;;;10.43;64.12
64551;BME280;50945;44.472;-123.352;2023-06-14T09:19:24;100878.13;;;10.39;63.96
64551;BME280;50945;44.472;-123.352;2023-06-14T09:21:52;100876.09;;;10.33;63.66
64551;BME280;50945;44.472;-123.352;2023-06-14T09:24:19;100879.44;;;10.26;64.06
64551;BME280;50945;44.472;-123.352;2023-06-14T09:26:48;100886.28;;;10.22;69.06
64551;BME280;50945;44.472;-123.352;2023-06-14T09:29:17;100881.66;;;10.23;64.70
64551;BME280;50945;44.472;-123.352;2023-06-14T09:31:46;100874.00;;;10.26;64.65
64551;BME280;50945;44.472;-123.352;2023-06-14T09:34:13;100876.38;;;10.30;64.97
64551;BME280;50945;44.472;-123.352;2023-06-14T09:36:40;100873.53;;;10.31;64.72
64551;BME280;50945;44.472;-123.352;2023-06-14T09:39:09;100879.66;;;10.33;64.82
64551;BME280;50945;44.472;-123.352;2023-06-14T09:41:37;100875.75;;;10.36;64.85
64551;BME280;50945;44.472;-123.352;2023-06-14T09:44:07;100879.50;;;10.43;64.61
64551;BME280;50945;44.472;-123.352;2023-06-14T09:46:34;100890.06;;;10.46;64.84
64551;BME280;50945;44.472;-123.352;2023-06-14T09:49:02;100888.38;;;10.45;64.51
64551;BME280;50945;44.472;-123.352;2023-06-14T09:51:29;100882.25;;;10.43;64.14
64551;BME280;50945;44.472;-123.352;2023-06-14T09:54:03;100881.19;;;10.44;65.03
64551;BME280;50945;44.472;-123.352;2023-06-14T09:56:35;100883.75;;;10.45;64.56
64551;BME280;50945;44.472;-123.352;2023-06-14T09:59:04;100880.19;;;10.45;64.11
64551;BME280;50945;44.472;-123.352;2023-06-14T10:01:32;100876.56;;;10.44;64.51
64551;BME280;50945;44.472;-123.352;2023-06-14T10:04:10;100883.09;;;10.43;64.60
64551;BME280;50945;44.472;-123.352;2023-06-14T10:06:37;100879.31;;;10.44;64.52
64551;BME280;50945;44.472;-123.352;2023-06-14T10:09:08;100890.97;;;10.46;64.61
64551;BME280;50945;44.472;-123.352;2023-06-14T10:11:35;100888.22;;;10.46;64.32
64551;BME280;50945;44.472;-123.352;2023-06-14T10:14:03;100887.00;;;10.49;64.59
64551;BME280;50945;44.472;-123.352;2023-06-14T10:16:56;100894.88;;;10.52;64.22
64551;BME280;50945;44.472;-123.352;2023-06-14T10:19:27;100897.44;;;10.54;64.69
64551;BME280;50945;44.472;-123.352;2023-06-14T10:22:06;100898.63;;;10.59;64.22
64551;BME280;50945;44.472;-123.352;2023-06-14T10:24:43;100901.88;;;10.63;64.41
64551;BME280;50945;44.472;-123.352;2023-06-14T10:27:10;100910.75;;;10.65;63.94
64551;BME280;50945;44.472;-123.352;2023-06-14T10:30:02;100907.00;;;10.66;65.46
64551;BME280;50945;44.472;-123.352;2023-06-14T10:32:28;100901.34;;;10.68;64.45
64551;BME280;50945;44.472;-123.352;2023-06-14T10:35:15;100908.19;;;10.72;64.30
64551;BME280;50945;44.472;-123.352;2023-06-14T10:37:42;100900.00;;;10.72;64.03
64551;BME280;50945;44.472;-123.352;2023-06-14T10:40:08;100905.47;;;10.72;64.23
64551;BME280;50945;44.472;-123.352;2023-06-14T10:42:35;100911.59;;;10.74;64.17
64551;BME280;50945;44.472;-123.352;2023-06-14T10:45:01;100902.03;;;10.78;64.12
64551;BME280;50945;44.472;-123.352;2023-06-14T10:47:33;100902.19;;;10.84;64.17
64551;BME280;50945;44.472;-123.352;2023-06-14T10:50:09;100910.22;;;10.86;63.76
64551;BME280;50945;44.472;-123.352;2023-06-14T10:52:43;100906.44;;;10.87;64.36
64551;BME280;50945;44.472;-123.352;2023-06-14T10:55:10;100900.13;;;10.87;63.44
64551;BME280;50945;44.472;-123.352;2023-06-14T10:57:58;100906.66;;;10.86;65.59
64551;BME280;50945;44.472;-123.352;2023-06-14T11:00:28;100906.66;;;10.86;63.61
64551;BME280;50945;44.472;-123.352;2023-06-14T11:10:59;100911.91;;;10.87;63.79
64551;BME280;50945;44.472;-123.352;2023-06-14T11:13:26;100904.59;;;10.88;63.85
64551;BME280;50945;44.472;-123.352;2023-06-14T11:15:53;100913.63;;;10.88;63.36
64551;BME280;50945;44.472;-123.352;2023-06-14T11:18:22;100904.41;;;10.89;63.65
64551;BME280;50945;44.472;-123.352;2023-06-14T11:20:53;100913.28;;;10.91;63.80
64551;BME280;50945;44.472;-123.352;2023-06-14T11:23:20;100911.25;;;10.93;63.52
64551;BME280;50945;44.472;-123.352;2023-06-14T11:25:53;100913.13;;;10.93;63.60
64551;BME280;50945;44.472;-123.352;2023-06-14T11:28:19;100917.56;;;10.94;63.88
64551;BME280;50945;44.472;-123.352;2023-06-14T11:30:48;100918.06;;;10.97;63.22
64551;BME280;50945;44.472;-123.352;2023-06-14T11:33:18;100909.69;;;10.99;63.58
64551;BME280;50945;44.472;-123.352;2023-06-14T11:35:45;100916.88;;;11.00;63.52
64551;BME280;50945;44.472;-123.352;2023-06-14T11:38:11;100914.97;;;11.00;66.49
64551;BME280;50945;44.472;-123.352;2023-06-14T11:40:38;100913.97;;;11.01;63.22
64551;BME280;50945;44.472;-123.352;2023-06-14T11:43:04;100909.34;;;11.02;63.26
64551;BME280;50945;44.472;-123.352;2023-06-14T11:45:31;100910.03;;;11.04;63.08
64551;BME280;50945;44.472;-123.352;2023-06-14T11:47:58;100906.94;;;11.07;63.44
64551;BME280;50945;44.472;-123.352;2023-06-14T11:50:25;100912.75;;;11.12;63.55
64551;BME280;50945;44.472;-123.352;2023-06-14T11:52:55;100915.97;;;11.16;63.41
64551;BME280;50945;44.472;-123.352;2023-06-14T11:55:23;100916.84;;;11.16;63.16
64551;BME280;50945;44.472;-123.352;2023-06-14T11:57:50;100921.09;;;11.19;62.65
64551;BME280;50945;44.472;-123.352;2023-06-14T12:00:17;100915.63;;;11.19;63.28
64551;BME280;50945;44.472;-123.352;2023-06-14T12:02:52;100921.78;;;11.21;63.03
64551;BME280;50945;44.472;-123.352;2023-06-14T12:05:22;100917.50;;;11.18;63.15
64551;BME280;50945;44.472;-123.352;2023-06-14T12:07:49;100915.97;;;11.16;63.20
64551;BME280;50945;44.472;-123.352;2023-06-14T12:10:16;100922.66;;;11.13;62.96
64551;BME280;50945;44.472;-123.352;2023-06-14T12:12:43;100928.28;;;11.12;62.61
64551;BME280;50945;44.472;-123.352;2023-06-14T12:15:10;100932.91;;;11.11;63.20
64551;BME280;50945;44.472;-123.352;2023-06-14T12:17:39;100937.38;;;11.12;62.83
64551;BME280;50945;44.472;-123.352;2023-06-14T12:20:10;100941.13;;;11.11;63.07
64551;BME280;50945;44.472;-123.352;2023-06-14T12:22:37;100943.69;;;11.13;62.93
64551;BME280;50945;44.472;-123.352;2023-06-14T12:25:04;100946.09;;;11.16;65.32
64551;BME280;50945;44.472;-123.352;2023-06-14T12:27:30;100946.75;;;11.18;63.20
64551;BME280;50945;44.472;-123.352;2023-06-14T12:30:01;100951.00;;;11.20;62.84
64551;BME280;50945;44.472;-123.352;2023-06-14T12:32:28;100952.91;;;11.20;63.29
64551;BME280;50945;44.472;-123.352;2023-06-14T12:34:54;100945.72;;;11.19;63.06
64551;BME280;50945;44.472;-123.352;2023-06-14T12:37:20;100959.41;;;11.19;63.14